Time;durP1;ratioP1;P1;durP2;ratioP2;P2;SDS_P1;SDS_P2;PMS_P1;PMS_P2;Temp;Humidity;BMP_temperature;BMP_pressure;BME280_temperature;BME280_humidity;BME280_pressure;Samples;Min_cycle;Max_cycle;Signal;HPM_P1;HPM_P2
2023/12/03 00:01:39;;;;;;;;;;;17.80;48.00;;;;;;7401195;19;2167;-60
2023/12/03 00:04:05;;;;;;;;;;;17.90;48.00;;;;;;7396611;19;3232;-60
2023/12/03 00:06:30;;;;;;;;;;;17.80;48.00;;;;;;7401766;19;1652;-60
2023/12/03 00:08:55;;;;;;;;;;;17.90;48.10;;;;;;7398613;19;1904;-60
2023/12/03 00:11:21;;;;;;;;;;;17.80;48.00;;;;;;7396970;19;4136;-59
2023/12/03 00:13:47;;;;;;;;;;;17.80;48.40;;;;;;7397220;19;879;-59
2023/12/03 00:16:12;;;;;;;;;;;17.80;49.00;;;;;;7398172;19;3797;-60
2023/12/03 00:18:39;;;;;;;;;;;17.80;48.40;;;;;;7399327;19;3158;-61
2023/12/03 00:21:04;;;;;;;;;;;17.70;48.10;;;;;;7396110;19;2671;-59
2023/12/03 00:23:30;;;;;;;;;;;17.70;48.10;;;;;;7392723;19;4052;-59
2023/12/03 00:25:55;;;;;;;;;;;17.80;48.00;;;;;;7398763;19;3479;-60
2023/12/03 00:28:20;;;;;;;;;;;17.70;48.10;;;;;;7399567;19;1688;-61
2023/12/03 00:30:46;;;;;;;;;;;17.70;48.30;;;;;;7396444;19;3279;-61
2023/12/03 00:33:11;;;;;;;;;;;17.60;48.10;;;;;;7397853;19;3444;-60
2023/12/03 00:35:37;;;;;;;;;;;17.60;48.20;;;;;;7399666;19;1558;-60
2023/12/03 00:38:02;;;;;;;;;;;17.70;48.00;;;;;;7397592;19;1722;-60
2023/12/03 00:40:27;;;;;;;;;;;17.70;47.90;;;;;;7396996;19;3303;-60
2023/12/03 00:42:54;;;;;;;;;;;17.70;48.00;;;;;;7396363;19;3668;-59
2023/12/03 00:45:21;;;;;;;;;;;17.70;48.00;;;;;;7399718;19;1682;-60
2023/12/03 00:47:46;;;;;;;;;;;17.70;48.20;;;;;;7397889;19;1522;-60
2023/12/03 00:50:12;;;;;;;;;;;17.60;48.20;;;;;;7397770;19;3630;-60
2023/12/03 00:52:37;;;;;;;;;;;17.60;48.30;;;;;;7394706;19;3373;-59
2023/12/03 00:55:03;;;;;;;;;;;17.60;48.20;;;;;;7398863;19;3553;-61
2023/12/03 00:57:29;;;;;;;;;;;17.70;48.20;;;;;;7396077;19;1631;-60
2023/12/03 00:59:54;;;;;;;;;;;17.70;48.10;;;;;;7397853;19;1700;-59
2023/12/03 01:02:20;;;;;;;;;;;17.70;48.10;;;;;;7396389;19;3396;-60
2023/12/03 01:04:45;;;;;;;;;;;17.70;47.90;;;;;;7395176;19;1994;-60
2023/12/03 01:07:11;;;;;;;;;;;17.70;48.00;;;;;;7394105;19;1642;-60
2023/12/03 01:09:36;;;;;;;;;;;17.70;47.80;;;;;;7393825;19;4447;-60
2023/12/03 01:12:01;;;;;;;;;;;17.70;47.80;;;;;;7396060;19;1616;-60
2023/12/03 01:14:27;;;;;;;;;;;17.70;47.90;;;;;;7398790;19;1517;-61
2023/12/03 01:16:52;;;;;;;;;;;17.70;47.80;;;;;;7397054;19;3452;-60
2023/12/03 01:19:18;;;;;;;;;;;17.70;47.80;;;;;;7398413;19;3505;-61
2023/12/03 01:21:43;;;;;;;;;;;17.70;47.90;;;;;;7394847;19;3891;-60
2023/12/03 01:24:09;;;;;;;;;;;17.70;47.70;;;;;;7397003;19;3892;-61
2023/12/03 01:26:34;;;;;;;;;;;17.70;47.80;;;;;;7394858;19;4165;-60
2023/12/03 01:29:00;;;;;;;;;;;17.70;47.80;;;;;;7399198;19;3133;-60
2023/12/03 01:31:25;;;;;;;;;;;17.70;47.80;;;;;;7396241;19;3701;-60
2023/12/03 01:33:51;;;;;;;;;;;17.70;47.80;;;;;;7396412;19;1521;-60
2023/12/03 01:36:16;;;;;;;;;;;17.70;47.90;;;;;;7395901;19;1870;-60
2023/12/03 01:38:41;;;;;;;;;;;17.70;47.70;;;;;;7395346;19;3173;-60
2023/12/03 01:41:07;;;;;;;;;;;17.70;47.90;;;;;;7398282;19;1687;-60
2023/12/03 01:43:32;;;;;;;;;;;17.60;47.90;;;;;;7396528;19;1846;-60
2023/12/03 01:45:58;;;;;;;;;;;17.60;47.90;;;;;;7394318;19;3321;-60
2023/12/03 01:48:25;;;;;;;;;;;17.60;47.80;;;;;;7397511;19;3711;-60
2023/12/03 01:50:51;;;;;;;;;;;17.60;47.80;;;;;;7396115;19;3177;-60
2023/12/03 01:53:16;;;;;;;;;;;17.60;47.70;;;;;;7395866;19;4106;-60
2023/12/03 01:55:43;;;;;;;;;;;17.60;47.70;;;;;;7397839;19;1752;-60
2023/12/03 01:58:08;;;;;;;;;;;17.60;47.70;;;;;;7389382;19;3791;-60
2023/12/03 02:00:34;;;;;;;;;;;17.60;47.80;;;;;;7395051;19;2392;-59
2023/12/03 02:02:59;;;;;;;;;;;17.50;47.60;;;;;;7397231;19;1859;-60
2023/12/03 02:05:25;;;;;;;;;;;17.50;47.70;;;;;;7397658;19;1515;-60
2023/12/03 02:07:50;;;;;;;;;;;17.50;47.80;;;;;;7392783;19;3636;-60
2023/12/03 02:10:15;;;;;;;;;;;17.60;47.80;;;;;;7403273;19;1690;-59
2023/12/03 02:12:41;;;;;;;;;;;17.60;47.70;;;;;;7399254;19;3442;-60
2023/12/03 02:15:06;;;;;;;;;;;17.60;47.60;;;;;;7402037;19;1870;-60
2023/12/03 02:17:32;;;;;;;;;;;17.60;47.70;;;;;;7405708;19;1689;-60
2023/12/03 02:19:57;;;;;;;;;;;17.60;47.60;;;;;;7404678;19;1557;-60
2023/12/03 02:22:23;;;;;;;;;;;17.60;47.70;;;;;;7399297;19;3668;-60
2023/12/03 02:24:48;;;;;;;;;;;17.60;47.50;;;;;;7399699;19;3609;-60
2023/12/03 02:27:13;;;;;;;;;;;17.60;47.70;;;;;;7400412;19;3277;-59
2023/12/03 02:29:39;;;;;;;;;;;17.60;47.50;;;;;;7401999;19;1771;-60
2023/12/03 02:32:04;;;;;;;;;;;17.60;47.50;;;;;;7404928;19;1603;-60
2023/12/03 02:34:30;;;;;;;;;;;17.50;47.60;;;;;;7398831;19;4002;-60
2023/12/03 02:36:55;;;;;;;;;;;17.60;47.70;;;;;;7399681;19;4441;-59
2023/12/03 02:39:20;;;;;;;;;;;17.50;47.40;;;;;;7404062;19;1891;-61
2023/12/03 02:41:46;;;;;;;;;;;17.50;47.60;;;;;;7399933;19;3410;-59
2023/12/03 02:44:11;;;;;;;;;;;17.50;47.60;;;;;;7404104;19;1693;-60
2023/12/03 02:46:37;;;;;;;;;;;17.50;47.60;;;;;;7402647;19;1568;-60
2023/12/03 02:49:02;;;;;;;;;;;17.50;47.50;;;;;;7401382;19;3242;-60
2023/12/03 02:51:28;;;;;;;;;;;17.50;47.50;;;;;;7401520;19;1908;-60
2023/12/03 02:53:53;;;;;;;;;;;17.50;47.50;;;;;;7400998;19;1703;-60
2023/12/03 02:56:19;;;;;;;;;;;17.60;47.50;;;;;;7403172;19;1915;-60
2023/12/03 02:58:44;;;;;;;;;;;17.50;47.40;;;;;;7396955;19;3342;-60
2023/12/03 03:01:10;;;;;;;;;;;17.60;47.30;;;;;;7402943;19;1642;-60
2023/12/03 03:03:35;;;;;;;;;;;17.50;47.30;;;;;;7397595;19;3408;-60
2023/12/03 03:06:00;;;;;;;;;;;17.50;47.30;;;;;;7399996;19;2354;-60
2023/12/03 03:08:26;;;;;;;;;;;17.50;47.30;;;;;;7400835;19;1733;-60
2023/12/03 03:10:51;;;;;;;;;;;17.50;47.20;;;;;;7400253;19;3439;-60
2023/12/03 03:13:17;;;;;;;;;;;17.50;48.10;;;;;;7403575;19;1491;-60
2023/12/03 03:15:42;;;;;;;;;;;17.50;47.30;;;;;;7401682;19;1615;-60
2023/12/03 03:18:07;;;;;;;;;;;17.50;47.30;;;;;;7403462;19;1604;-59
2023/12/03 03:20:33;;;;;;;;;;;17.40;47.20;;;;;;7397741;19;4221;-60
2023/12/03 03:22:59;;;;;;;;;;;17.40;47.30;;;;;;7398453;19;1857;-60
2023/12/03 03:25:24;;;;;;;;;;;17.50;47.90;;;;;;7399920;19;3237;-60
2023/12/03 03:27:50;;;;;;;;;;;17.50;47.30;;;;;;7402076;19;3259;-60
2023/12/03 03:30:15;;;;;;;;;;;17.40;47.30;;;;;;7402499;19;1511;-60
2023/12/03 03:32:41;;;;;;;;;;;17.50;47.20;;;;;;7400324;19;3589;-60
2023/12/03 03:35:06;;;;;;;;;;;17.50;47.10;;;;;;7401281;19;1494;-60
2023/12/03 03:37:32;;;;;;;;;;;17.50;47.30;;;;;;7398713;19;3286;-60
2023/12/03 03:39:57;;;;;;;;;;;17.50;47.10;;;;;;7399365;19;3847;-60
2023/12/03 03:42:22;;;;;;;;;;;17.50;47.10;;;;;;7400222;19;3763;-61
2023/12/03 03:44:48;;;;;;;;;;;17.50;47.20;;;;;;7402956;19;1460;-60
2023/12/03 03:47:13;;;;;;;;;;;17.40;47.10;;;;;;7398090;19;4275;-60
2023/12/03 03:49:39;;;;;;;;;;;17.50;47.10;;;;;;7400992;19;1740;-60
2023/12/03 03:52:05;;;;;;;;;;;17.40;47.00;;;;;;7401881;19;1661;-60
2023/12/03 03:54:30;;;;;;;;;;;17.40;47.20;;;;;;7400115;19;1698;-60
2023/12/03 03:56:55;;;;;;;;;;;17.40;47.30;;;;;;7397187;19;3360;-60
2023/12/03 03:59:21;;;;;;;;;;;17.40;47.60;;;;;;7399578;19;1500;-60
2023/12/03 04:01:46;;;;;;;;;;;17.40;47.30;;;;;;7398416;19;5564;-60
2023/12/03 04:04:12;;;;;;;;;;;17.30;47.20;;;;;;7398257;19;839;-60
2023/12/03 04:06:41;;;;;;;;;;;17.40;47.30;;;;;;7399692;19;1817;-60
2023/12/03 04:09:09;;;;;;;;;;;17.40;47.20;;;;;;7397206;19;3328;-60
2023/12/03 04:11:41;;;;;;;;;;;17.40;47.20;;;;;;7400424;19;3872;-60
2023/12/03 04:14:07;;;;;;;;;;;17.40;47.20;;;;;;7398633;19;1419;-60
2023/12/03 04:16:33;;;;;;;;;;;17.40;47.40;;;;;;7401241;19;1819;-61
2023/12/03 04:18:58;;;;;;;;;;;17.30;47.40;;;;;;7398296;19;3262;-61
2023/12/03 04:21:24;;;;;;;;;;;17.30;47.30;;;;;;7397501;19;3477;-60
2023/12/03 04:23:49;;;;;;;;;;;17.40;47.20;;;;;;7396824;19;4679;-60
2023/12/03 04:26:15;;;;;;;;;;;17.40;47.10;;;;;;7396826;19;3672;-60
2023/12/03 04:28:41;;;;;;;;;;;17.40;47.10;;;;;;7400886;19;1564;-60
2023/12/03 04:31:22;;;;;;;;;;;17.40;47.00;;;;;;7398633;19;3278;-60
2023/12/03 04:33:48;;;;;;;;;;;17.40;47.00;;;;;;7400254;19;1637;-60
2023/12/03 04:36:14;;;;;;;;;;;17.30;47.00;;;;;;7396108;19;3341;-60
2023/12/03 04:38:39;;;;;;;;;;;17.40;47.20;;;;;;7399503;19;3850;-60
2023/12/03 04:41:05;;;;;;;;;;;17.30;47.10;;;;;;7400492;19;1826;-61
2023/12/03 04:43:30;;;;;;;;;;;17.30;46.90;;;;;;7396659;19;1813;-60
2023/12/03 04:45:56;;;;;;;;;;;17.40;47.00;;;;;;7398296;19;3725;-60
2023/12/03 04:48:22;;;;;;;;;;;17.40;46.90;;;;;;7399214;19;1535;-60
2023/12/03 04:50:47;;;;;;;;;;;17.50;47.00;;;;;;7398093;19;4082;-60
2023/12/03 04:53:13;;;;;;;;;;;17.50;46.80;;;;;;7395834;19;3647;-60
2023/12/03 04:55:38;;;;;;;;;;;17.40;46.90;;;;;;7398048;19;1628;-60
2023/12/03 04:58:04;;;;;;;;;;;17.40;46.90;;;;;;7399087;19;1683;-59
2023/12/03 05:00:29;;;;;;;;;;;17.40;46.80;;;;;;7396290;19;2165;-60
2023/12/03 05:02:54;;;;;;;;;;;17.40;46.80;;;;;;7393693;19;4064;-59
2023/12/03 05:05:20;;;;;;;;;;;17.40;47.10;;;;;;7395992;19;1626;-60
2023/12/03 05:07:45;;;;;;;;;;;17.40;47.00;;;;;;7393302;19;3678;-60
2023/12/03 05:10:11;;;;;;;;;;;17.40;46.90;;;;;;7396663;19;1660;-60
2023/12/03 05:12:36;;;;;;;;;;;17.30;47.00;;;;;;7397160;19;3683;-59
2023/12/03 05:15:02;;;;;;;;;;;17.30;46.90;;;;;;7399225;19;1497;-60
2023/12/03 05:17:27;;;;;;;;;;;17.30;47.00;;;;;;7397274;19;1609;-60
2023/12/03 05:19:53;;;;;;;;;;;17.30;47.10;;;;;;7396068;19;1575;-60
2023/12/03 05:22:18;;;;;;;;;;;17.30;47.00;;;;;;7389081;19;3722;-60
2023/12/03 05:24:44;;;;;;;;;;;17.40;47.70;;;;;;7398268;19;3557;-60
2023/12/03 05:27:09;;;;;;;;;;;17.40;47.00;;;;;;7396744;19;1658;-60
2023/12/03 05:29:34;;;;;;;;;;;17.30;47.00;;;;;;7395601;19;4087;-60
2023/12/03 05:32:00;;;;;;;;;;;17.30;46.90;;;;;;7399356;19;1436;-60
2023/12/03 05:34:25;;;;;;;;;;;17.40;47.00;;;;;;7397910;19;1553;-59
2023/12/03 05:36:51;;;;;;;;;;;17.30;46.90;;;;;;7397168;19;1823;-60
2023/12/03 05:39:16;;;;;;;;;;;17.30;46.90;;;;;;7393727;19;3682;-60
2023/12/03 05:41:42;;;;;;;;;;;17.30;46.90;;;;;;7398410;19;1853;-60
2023/12/03 05:44:08;;;;;;;;;;;17.30;47.00;;;;;;7392290;19;3922;-60
2023/12/03 05:46:39;;;;;;;;;;;17.20;47.00;;;;;;7396790;19;1503;-61
2023/12/03 05:49:06;;;;;;;;;;;17.20;47.20;;;;;;7398154;19;1725;-60
2023/12/03 05:51:32;;;;;;;;;;;17.20;46.90;;;;;;7392994;19;3385;-60
2023/12/03 05:53:57;;;;;;;;;;;17.20;47.00;;;;;;7396899;19;1589;-60
2023/12/03 05:56:23;;;;;;;;;;;17.30;47.00;;;;;;7397531;19;1496;-60
2023/12/03 05:58:48;;;;;;;;;;;17.20;47.00;;;;;;7392320;19;2999;-60
2023/12/03 06:01:31;;;;;;;;;;;17.20;46.90;;;;;;7397880;19;3407;-60
2023/12/03 06:03:57;;;;;;;;;;;17.30;46.90;;;;;;7392533;19;3784;-60
2023/12/03 06:06:22;;;;;;;;;;;17.20;46.70;;;;;;7397982;19;1537;-60
2023/12/03 06:08:48;;;;;;;;;;;17.30;46.80;;;;;;7396989;19;1585;-60
2023/12/03 06:11:13;;;;;;;;;;;17.30;46.70;;;;;;7394280;19;3389;-60
2023/12/03 06:13:39;;;;;;;;;;;17.30;46.70;;;;;;7397883;19;1714;-60
2023/12/03 06:16:04;;;;;;;;;;;17.30;46.50;;;;;;7394146;19;1409;-60
2023/12/03 06:18:30;;;;;;;;;;;17.30;46.70;;;;;;7397071;19;1931;-60
2023/12/03 06:20:55;;;;;;;;;;;17.30;46.70;;;;;;7392463;19;3545;-60
2023/12/03 06:23:22;;;;;;;;;;;17.20;46.90;;;;;;7389782;19;4076;-60
2023/12/03 06:25:47;;;;;;;;;;;17.20;46.90;;;;;;7394487;19;4653;-60
2023/12/03 06:28:13;;;;;;;;;;;17.20;46.70;;;;;;7396133;19;1623;-60
2023/12/03 06:30:39;;;;;;;;;;;17.20;46.80;;;;;;7394700;19;1596;-60
2023/12/03 06:33:04;;;;;;;;;;;17.20;46.70;;;;;;7396340;19;1745;-61
2023/12/03 06:35:29;;;;;;;;;;;17.20;46.80;;;;;;7395815;19;3254;-60
2023/12/03 06:37:55;;;;;;;;;;;17.20;46.80;;;;;;7393623;19;1686;-60
2023/12/03 06:40:21;;;;;;;;;;;17.20;46.80;;;;;;7393085;19;3674;-60
2023/12/03 06:42:46;;;;;;;;;;;17.20;46.70;;;;;;7392651;19;1831;-60
2023/12/03 06:45:13;;;;;;;;;;;17.20;46.60;;;;;;7394848;19;1736;-60
2023/12/03 06:47:39;;;;;;;;;;;17.30;46.70;;;;;;7394769;19;3630;-60
2023/12/03 06:50:04;;;;;;;;;;;17.30;46.80;;;;;;7394563;19;1461;-60
2023/12/03 06:52:30;;;;;;;;;;;17.30;47.40;;;;;;7395989;19;1845;-60
2023/12/03 06:54:55;;;;;;;;;;;17.30;46.70;;;;;;7392661;19;3531;-60
2023/12/03 06:57:21;;;;;;;;;;;17.20;46.70;;;;;;7403987;19;3609;-60
2023/12/03 06:59:46;;;;;;;;;;;17.10;46.70;;;;;;7399897;19;1979;-60
2023/12/03 07:02:11;;;;;;;;;;;17.20;46.90;;;;;;7393639;19;4408;-60
2023/12/03 07:04:37;;;;;;;;;;;17.20;46.80;;;;;;7404010;19;3249;-60
2023/12/03 07:07:03;;;;;;;;;;;17.10;46.70;;;;;;7400082;19;2114;-60
2023/12/03 07:09:29;;;;;;;;;;;17.20;46.80;;;;;;7397929;19;3280;-60
2023/12/03 07:11:54;;;;;;;;;;;17.20;46.80;;;;;;7403269;19;1581;-61
2023/12/03 07:14:19;;;;;;;;;;;17.20;46.70;;;;;;7400774;19;4279;-60
2023/12/03 07:16:45;;;;;;;;;;;17.20;46.70;;;;;;7402852;19;3456;-61
2023/12/03 07:19:10;;;;;;;;;;;17.20;46.70;;;;;;7399556;19;3380;-60
2023/12/03 07:21:36;;;;;;;;;;;17.20;46.60;;;;;;7402449;19;1849;-60
2023/12/03 07:24:01;;;;;;;;;;;17.20;46.60;;;;;;7398252;19;3980;-60
2023/12/03 07:26:27;;;;;;;;;;;17.20;46.40;;;;;;7400409;19;3531;-60
2023/12/03 07:28:52;;;;;;;;;;;17.20;46.60;;;;;;7402851;19;1719;-61
2023/12/03 07:31:18;;;;;;;;;;;17.20;46.40;;;;;;7400182;19;3351;-60
2023/12/03 07:33:43;;;;;;;;;;;17.20;46.40;;;;;;7399370;19;4014;-60
2023/12/03 07:36:09;;;;;;;;;;;17.20;46.40;;;;;;7396683;19;3595;-60
2023/12/03 07:38:35;;;;;;;;;;;17.20;46.40;;;;;;7397550;19;3253;-60
2023/12/03 07:41:00;;;;;;;;;;;17.20;46.40;;;;;;7399878;19;4537;-60
2023/12/03 07:43:26;;;;;;;;;;;17.20;46.40;;;;;;7399058;19;2160;-60
2023/12/03 07:45:52;;;;;;;;;;;17.20;46.40;;;;;;7398025;19;4593;-60
2023/12/03 07:48:17;;;;;;;;;;;17.20;46.40;;;;;;7396952;19;4085;-60
2023/12/03 07:50:43;;;;;;;;;;;17.20;46.40;;;;;;7400039;19;4078;-60
2023/12/03 07:53:08;;;;;;;;;;;17.20;46.60;;;;;;7399328;19;3755;-60
2023/12/03 07:55:34;;;;;;;;;;;17.20;46.40;;;;;;7398788;19;3641;-60
2023/12/03 07:57:59;;;;;;;;;;;17.20;46.40;;;;;;7401898;19;1787;-60
2023/12/03 08:00:25;;;;;;;;;;;17.20;46.40;;;;;;7395955;19;3551;-60
2023/12/03 08:02:50;;;;;;;;;;;17.20;46.40;;;;;;7398623;19;2523;-60
2023/12/03 08:05:15;;;;;;;;;;;17.20;46.40;;;;;;7398010;19;1081;-60
2023/12/03 08:07:42;;;;;;;;;;;17.20;46.60;;;;;;7394040;19;4620;-60
2023/12/03 08:10:07;;;;;;;;;;;17.20;46.40;;;;;;7392487;19;4038;-60
2023/12/03 08:12:33;;;;;;;;;;;17.10;46.30;;;;;;7398810;19;3584;-59
2023/12/03 08:14:58;;;;;;;;;;;17.10;46.30;;;;;;7398405;19;3637;-59
2023/12/03 08:17:23;;;;;;;;;;;17.10;46.30;;;;;;7392439;19;3986;-59
2023/12/03 08:19:49;;;;;;;;;;;17.20;46.30;;;;;;7394222;19;3333;-62
2023/12/03 08:22:14;;;;;;;;;;;17.20;46.30;;;;;;7395448;19;3136;-59
2023/12/03 08:24:40;;;;;;;;;;;17.20;46.20;;;;;;7399979;19;1516;-60
2023/12/03 08:27:05;;;;;;;;;;;17.10;46.10;;;;;;7398869;19;3712;-60
2023/12/03 08:29:31;;;;;;;;;;;17.10;46.10;;;;;;7397500;19;994;-60
2023/12/03 08:31:56;;;;;;;;;;;17.10;46.30;;;;;;7396691;19;3388;-60
2023/12/03 08:34:22;;;;;;;;;;;17.10;46.30;;;;;;7395465;19;1007;-60
2023/12/03 08:36:47;;;;;;;;;;;17.10;46.40;;;;;;7396825;19;3393;-60
2023/12/03 08:39:13;;;;;;;;;;;17.10;46.50;;;;;;7397984;19;1446;-60
2023/12/03 08:41:38;;;;;;;;;;;17.10;46.20;;;;;;7399049;19;1859;-59
2023/12/03 08:44:04;;;;;;;;;;;17.10;46.30;;;;;;7395608;19;3622;-60
2023/12/03 08:46:29;;;;;;;;;;;17.00;46.20;;;;;;7398762;19;1786;-60
2023/12/03 08:48:55;;;;;;;;;;;17.00;46.30;;;;;;7399491;19;1811;-60
2023/12/03 08:51:21;;;;;;;;;;;17.10;46.40;;;;;;7395474;19;3302;-60
2023/12/03 08:53:46;;;;;;;;;;;17.10;46.20;;;;;;7396550;19;1676;-60
2023/12/03 08:56:12;;;;;;;;;;;17.10;46.10;;;;;;7397246;19;4104;-60
2023/12/03 08:58:40;;;;;;;;;;;17.10;46.10;;;;;;7398148;19;1664;-60
2023/12/03 09:01:09;;;;;;;;;;;17.10;46.10;;;;;;7398493;19;4129;-60
2023/12/03 09:03:34;;;;;;;;;;;17.10;46.10;;;;;;7393743;19;2448;-60
2023/12/03 09:06:00;;;;;;;;;;;17.10;46.10;;;;;;7395121;19;4095;-60
2023/12/03 09:08:25;;;;;;;;;;;17.10;46.00;;;;;;7396163;19;1832;-60
2023/12/03 09:10:51;;;;;;;;;;;17.10;45.90;;;;;;7400234;19;1443;-60
2023/12/03 09:13:16;;;;;;;;;;;17.20;45.80;;;;;;7397000;19;4019;-60
2023/12/03 09:15:42;;;;;;;;;;;17.20;45.90;;;;;;7395854;19;859;-61
2023/12/03 09:18:07;;;;;;;;;;;17.10;45.80;;;;;;7390714;19;3993;-59
2023/12/03 09:20:32;;;;;;;;;;;17.20;45.90;;;;;;7399323;19;4387;-60
2023/12/03 09:22:58;;;;;;;;;;;17.20;45.80;;;;;;7393707;19;1862;-60
2023/12/03 09:25:23;;;;;;;;;;;17.20;45.80;;;;;;7397933;19;1505;-60
2023/12/03 09:27:49;;;;;;;;;;;17.20;45.70;;;;;;7394879;19;3934;-60
2023/12/03 09:30:14;;;;;;;;;;;17.20;45.90;;;;;;7395168;19;955;-60
2023/12/03 09:32:40;;;;;;;;;;;17.10;45.70;;;;;;7395415;19;1574;-60
2023/12/03 09:35:06;;;;;;;;;;;17.20;45.70;;;;;;7391830;19;3705;-60
2023/12/03 09:37:31;;;;;;;;;;;17.10;45.60;;;;;;7392811;19;3463;-60
2023/12/03 09:39:57;;;;;;;;;;;17.10;46.20;;;;;;7394327;19;1571;-60
2023/12/03 09:42:24;;;;;;;;;;;17.10;45.70;;;;;;7392982;19;3307;-60
2023/12/03 09:44:51;;;;;;;;;;;17.10;45.70;;;;;;7396959;19;1501;-60
2023/12/03 09:47:16;;;;;;;;;;;17.10;45.70;;;;;;7388144;19;5014;-60
2023/12/03 09:49:42;;;;;;;;;;;17.10;45.80;;;;;;7393359;19;4821;-60
2023/12/03 09:52:10;;;;;;;;;;;17.10;45.60;;;;;;7396784;19;1650;-60
2023/12/03 09:54:36;;;;;;;;;;;17.10;45.70;;;;;;7391870;19;3330;-60
2023/12/03 09:57:01;;;;;;;;;;;17.10;45.70;;;;;;7391815;19;3564;-60
2023/12/03 09:59:27;;;;;;;;;;;17.00;46.30;;;;;;7388058;19;4057;-60
2023/12/03 10:01:53;;;;;;;;;;;17.00;45.70;;;;;;7390410;19;2841;-60
2023/12/03 10:04:18;;;;;;;;;;;17.10;45.80;;;;;;7390675;19;3738;-60
2023/12/03 10:06:44;;;;;;;;;;;17.10;45.50;;;;;;7396168;19;1518;-60
2023/12/03 10:09:10;;;;;;;;;;;17.20;45.40;;;;;;7388980;19;5022;-60
2023/12/03 10:11:39;;;;;;;;;;;17.30;45.20;;;;;;7395128;19;1535;-60
2023/12/03 10:14:06;;;;;;;;;;;17.40;45.10;;;;;;7393673;19;3117;-60
2023/12/03 10:16:32;;;;;;;;;;;17.50;45.10;;;;;;7392906;19;3574;-60
2023/12/03 10:18:58;;;;;;;;;;;17.60;45.00;;;;;;7391928;19;1018;-60
2023/12/03 10:21:24;;;;;;;;;;;17.70;44.80;;;;;;7390147;19;3350;-60
2023/12/03 10:24:00;;;;;;;;;;;17.70;44.60;;;;;;7391302;19;3713;-60
2023/12/03 10:26:26;;;;;;;;;;;17.80;44.50;;;;;;7396737;19;1493;-59
2023/12/03 10:28:52;;;;;;;;;;;17.80;44.30;;;;;;7395435;19;3335;-60
2023/12/03 10:31:18;;;;;;;;;;;17.80;44.30;;;;;;7399347;19;3730;-59
2023/12/03 10:33:43;;;;;;;;;;;17.90;44.30;;;;;;7401150;19;3440;-60
2023/12/03 10:36:09;;;;;;;;;;;17.90;44.10;;;;;;7401044;19;936;-60
2023/12/03 10:38:38;;;;;;;;;;;17.90;44.00;;;;;;7399681;19;1050;-60
2023/12/03 10:41:07;;;;;;;;;;;17.90;43.90;;;;;;7402500;19;3950;-59
2023/12/03 10:43:33;;;;;;;;;;;17.90;44.10;;;;;;7396327;19;3707;-59
2023/12/03 10:45:59;;;;;;;;;;;17.90;43.90;;;;;;7401935;19;1564;-60
2023/12/03 10:48:24;;;;;;;;;;;17.90;43.90;;;;;;7402320;19;3262;-60
2023/12/03 10:50:50;;;;;;;;;;;17.90;43.90;;;;;;7399677;19;3511;-59
2023/12/03 10:53:15;;;;;;;;;;;17.90;43.90;;;;;;7398975;19;1706;-60
2023/12/03 10:55:43;;;;;;;;;;;17.90;43.90;;;;;;7402805;19;1743;-60
2023/12/03 10:58:08;;;;;;;;;;;17.90;43.80;;;;;;7402948;19;1768;-60
2023/12/03 11:00:40;;;;;;;;;;;17.90;43.90;;;;;;7395988;19;3679;-60
2023/12/03 11:03:11;;;;;;;;;;;17.90;44.10;;;;;;7397070;19;3761;-60
2023/12/03 11:05:42;;;;;;;;;;;17.90;43.90;;;;;;7400176;19;3490;-60
2023/12/03 11:08:07;;;;;;;;;;;17.90;43.90;;;;;;7397774;19;4218;-60
2023/12/03 11:10:33;;;;;;;;;;;17.90;43.90;;;;;;7400324;19;1955;-61
2023/12/03 11:13:00;;;;;;;;;;;17.90;43.90;;;;;;7402178;19;1615;-60
2023/12/03 11:15:25;;;;;;;;;;;17.90;43.80;;;;;;7395940;19;3799;-60
2023/12/03 11:17:51;;;;;;;;;;;17.90;43.60;;;;;;7401863;19;1781;-61
2023/12/03 11:20:36;;;;;;;;;;;17.90;43.80;;;;;;7401745;19;1766;-60
2023/12/03 11:23:20;;;;;;;;;;;17.90;43.80;;;;;;7394899;19;3317;-60
2023/12/03 11:25:55;;;;;;;;;;;18.00;44.40;;;;;;7397416;19;4684;-60
2023/12/03 11:28:20;;;;;;;;;;;18.20;44.60;;;;;;7396877;19;3211;-60
2023/12/03 11:30:48;;;;;;;;;;;18.80;43.90;;;;;;7398720;19;3404;-60
2023/12/03 11:33:13;;;;;;;;;;;19.20;42.90;;;;;;7400386;19;3840;-60
2023/12/03 11:35:40;;;;;;;;;;;19.60;42.50;;;;;;7394037;19;4787;-60
2023/12/03 11:38:28;;;;;;;;;;;19.70;42.20;;;;;;7396694;19;3652;-60
2023/12/03 11:40:54;;;;;;;;;;;19.70;42.00;;;;;;7399419;19;3801;-60
2023/12/03 11:43:24;;;;;;;;;;;19.90;42.10;;;;;;7395209;19;4675;-61
2023/12/03 11:45:51;;;;;;;;;;;19.90;41.80;;;;;;7390485;19;6923;-61
2023/12/03 11:48:16;;;;;;;;;;;19.90;42.10;;;;;;7397461;19;5478;-60
2023/12/03 11:50:43;;;;;;;;;;;20.00;42.20;;;;;;7399387;19;5584;-61
2023/12/03 11:53:09;;;;;;;;;;;20.00;42.00;;;;;;7391680;19;5905;-60
2023/12/03 11:55:41;;;;;;;;;;;20.00;42.20;;;;;;7399594;19;3686;-59
2023/12/03 11:58:07;;;;;;;;;;;20.00;42.10;;;;;;7396944;19;1631;-58
2023/12/03 12:00:33;;;;;;;;;;;20.00;42.30;;;;;;7397014;19;3592;-60
2023/12/03 12:02:59;;;;;;;;;;;20.00;42.10;;;;;;7398616;19;1841;-60
2023/12/03 12:05:24;;;;;;;;;;;20.00;42.30;;;;;;7390589;19;6941;-60
2023/12/03 12:08:16;;;;;;;;;;;20.00;42.40;;;;;;7396507;19;4386;-58
2023/12/03 12:10:41;;;;;;;;;;;20.20;42.30;;;;;;7399945;19;1784;-60
2023/12/03 12:13:07;;;;;;;;;;;20.10;42.30;;;;;;7398937;19;2560;-59
2023/12/03 12:15:32;;;;;;;;;;;20.10;42.40;;;;;;7399785;19;1523;-60
2023/12/03 12:17:57;;;;;;;;;;;20.30;42.40;;;;;;7400460;19;1685;-60
2023/12/03 12:20:23;;;;;;;;;;;20.10;42.20;;;;;;7391722;19;5562;-60
2023/12/03 12:22:49;;;;;;;;;;;20.20;42.60;;;;;;7388219;19;5505;-60
2023/12/03 12:25:15;;;;;;;;;;;20.30;42.70;;;;;;7397573;19;2351;-60
2023/12/03 12:27:41;;;;;;;;;;;20.20;42.70;;;;;;7398068;19;2157;-59
2023/12/03 12:30:07;;;;;;;;;;;20.30;42.70;;;;;;7398040;19;2008;-59
2023/12/03 12:32:33;;;;;;;;;;;20.30;42.90;;;;;;7398904;19;2234;-59
2023/12/03 12:35:00;;;;;;;;;;;20.30;43.20;;;;;;7394796;19;1854;-59
2023/12/03 12:37:25;;;;;;;;;;;20.30;42.90;;;;;;7393878;19;5447;-59
2023/12/03 12:39:51;;;;;;;;;;;20.30;43.00;;;;;;7396954;19;3501;-60
2023/12/03 12:42:24;;;;;;;;;;;20.30;43.10;;;;;;7399152;19;2653;-61
2023/12/03 12:44:49;;;;;;;;;;;20.40;43.00;;;;;;7400807;19;1498;-60
2023/12/03 12:47:15;;;;;;;;;;;20.40;42.90;;;;;;7398389;19;1905;-60
2023/12/03 12:49:49;;;;;;;;;;;20.30;43.00;;;;;;7398102;19;2406;-60
2023/12/03 12:52:15;;;;;;;;;;;20.50;43.10;;;;;;7395012;19;5514;-60
2023/12/03 12:54:44;;;;;;;;;;;20.40;43.00;;;;;;7396756;19;4408;-60
2023/12/03 12:57:09;;;;;;;;;;;20.40;43.20;;;;;;7397190;19;1661;-58
2023/12/03 12:59:34;;;;;;;;;;;20.30;43.10;;;;;;7396284;19;3628;-59
2023/12/03 13:02:00;;;;;;;;;;;20.40;42.90;;;;;;7397582;19;2636;-59
2023/12/03 13:04:25;;;;;;;;;;;20.50;43.20;;;;;;7398946;19;1649;-58
2023/12/03 13:06:51;;;;;;;;;;;20.60;43.10;;;;;;7397416;19;1838;-60
2023/12/03 13:09:18;;;;;;;;;;;20.60;43.30;;;;;;7394245;19;3148;-60
2023/12/03 13:11:43;;;;;;;;;;;20.60;43.30;;;;;;7395384;19;2031;-60
2023/12/03 13:14:09;;;;;;;;;;;20.60;43.50;;;;;;7394187;19;4100;-60
2023/12/03 13:16:34;;;;;;;;;;;20.70;43.60;;;;;;7389312;19;4255;-60
2023/12/03 13:18:59;;;;;;;;;;;20.70;43.60;;;;;;7386300;19;4160;-60
2023/12/03 13:21:25;;;;;;;;;;;20.80;43.80;;;;;;7389259;19;4037;-60
2023/12/03 13:23:50;;;;;;;;;;;20.70;43.80;;;;;;7387839;19;4280;-60
2023/12/03 13:26:16;;;;;;;;;;;20.80;44.10;;;;;;7385383;19;4136;-60
2023/12/03 13:28:41;;;;;;;;;;;20.80;44.20;;;;;;7386265;19;5340;-60
2023/12/03 13:31:07;;;;;;;;;;;20.70;44.30;;;;;;7391437;19;4098;-60
2023/12/03 13:33:32;;;;;;;;;;;20.70;44.60;;;;;;7390784;19;4585;-60
2023/12/03 13:35:58;;;;;;;;;;;20.60;44.50;;;;;;7391754;19;4137;-60
2023/12/03 13:38:23;;;;;;;;;;;20.60;44.60;;;;;;7388974;19;4672;-59
2023/12/03 13:40:49;;;;;;;;;;;20.70;44.50;;;;;;7390842;19;4491;-60
2023/12/03 13:43:14;;;;;;;;;;;20.70;44.40;;;;;;7389072;19;5475;-60
2023/12/03 13:45:39;;;;;;;;;;;20.70;44.40;;;;;;7395044;19;1512;-60
2023/12/03 13:48:05;;;;;;;;;;;20.70;44.70;;;;;;7393174;19;5626;-60
2023/12/03 13:50:30;;;;;;;;;;;20.60;44.50;;;;;;7399188;19;1647;-62
2023/12/03 13:52:56;;;;;;;;;;;20.70;44.60;;;;;;7392894;19;3726;-61
2023/12/03 13:55:22;;;;;;;;;;;20.70;44.30;;;;;;7395036;19;3991;-60
2023/12/03 13:57:47;;;;;;;;;;;20.60;44.10;;;;;;7394894;19;1908;-60
2023/12/03 14:00:13;;;;;;;;;;;20.60;44.00;;;;;;7394498;19;1579;-60
2023/12/03 14:02:39;;;;;;;;;;;20.70;44.10;;;;;;7395488;19;5161;-60
2023/12/03 14:05:04;;;;;;;;;;;20.70;44.20;;;;;;7399575;19;4757;-60
2023/12/03 14:07:30;;;;;;;;;;;20.60;44.10;;;;;;7399627;19;3813;-60
2023/12/03 14:09:55;;;;;;;;;;;20.70;44.20;;;;;;7396925;19;4130;-61
2023/12/03 14:12:20;;;;;;;;;;;20.70;44.20;;;;;;7402382;19;1562;-62
2023/12/03 14:14:46;;;;;;;;;;;20.60;44.30;;;;;;7405488;19;1690;-63
2023/12/03 14:17:12;;;;;;;;;;;20.70;44.30;;;;;;7399246;19;4121;-61
2023/12/03 14:19:37;;;;;;;;;;;20.70;44.20;;;;;;7401820;19;2503;-61
2023/12/03 14:22:03;;;;;;;;;;;20.70;44.40;;;;;;7399307;19;1850;-62
2023/12/03 14:24:28;;;;;;;;;;;20.80;44.20;;;;;;7402553;19;1584;-61